sensor_id;sensor_type;location;lat;lon;timestamp;P1;durP1;ratioP1;P2;durP2;ratioP2
56541;SDS011;42438;53.174;6.730;2023-08-08T00:02:20;7.80;;;3.15;;
56541;SDS011;42438;53.174;6.730;2023-08-08T00:04:50;7.47;;;3.45;;
56541;SDS011;42438;53.174;6.730;2023-08-08T00:07:21;5.20;;;3.13;;
56541;SDS011;42438;53.174;6.730;2023-08-08T00:09:52;9.38;;;3.08;;
56541;SDS011;42438;53.174;6.730;2023-08-08T00:12:22;7.88;;;3.75;;
56541;SDS011;42438;53.174;6.730;2023-08-08T00:14:53;5.85;;;3.20;;
56541;SDS011;42438;53.174;6.730;2023-08-08T00:17:25;7.35;;;3.33;;
56541;SDS011;42438;53.174;6.730;2023-08-08T00:19:56;5.82;;;3.15;;
56541;SDS011;42438;53.174;6.730;2023-08-08T00:22:26;4.55;;;2.70;;
56541;SDS011;42438;53.174;6.730;2023-08-08T00:24:57;9.65;;;3.40;;
56541;SDS011;42438;53.174;6.730;2023-08-08T00:27:28;4.70;;;2.78;;
56541;SDS011;42438;53.174;6.730;2023-08-08T00:29:58;6.28;;;3.30;;
56541;SDS011;42438;53.174;6.730;2023-08-08T00:32:29;8.57;;;3.95;;
56541;SDS011;42438;53.174;6.730;2023-08-08T00:35:00;8.48;;;3.33;;
56541;SDS011;42438;53.174;6.730;2023-08-08T00:37:30;8.40;;;3.58;;
56541;SDS011;42438;53.174;6.730;2023-08-08T00:40:01;6.15;;;3.50;;
56541;SDS011;42438;53.174;6.730;2023-08-08T00:42:32;5.53;;;3.22;;
56541;SDS011;42438;53.174;6.730;2023-08-08T00:45:03;7.15;;;3.58;;
56541;SDS011;42438;53.174;6.730;2023-08-08T00:47:34;6.57;;;2.97;;
56541;SDS011;42438;53.174;6.730;2023-08-08T00:50:05;6.05;;;2.83;;
56541;SDS011;42438;53.174;6.730;2023-08-08T00:52:36;4.93;;;3.05;;
56541;SDS011;42438;53.174;6.730;2023-08-08T00:55:08;6.03;;;3.00;;
56541;SDS011;42438;53.174;6.730;2023-08-08T00:57:39;6.15;;;3.38;;
56541;SDS011;42438;53.174;6.730;2023-08-08T01:00:11;5.07;;;2.97;;
56541;SDS011;42438;53.174;6.730;2023-08-08T01:02:42;6.82;;;3.30;;
56541;SDS011;42438;53.174;6.730;2023-08-08T01:05:12;9.07;;;3.08;;
56541;SDS011;42438;53.174;6.730;2023-08-08T01:07:52;5.00;;;2.97;;
56541;SDS011;42438;53.174;6.730;2023-08-08T01:10:37;5.97;;;3.42;;
56541;SDS011;42438;53.174;6.730;2023-08-08T01:13:11;5.05;;;3.08;;
56541;SDS011;42438;53.174;6.730;2023-08-08T01:15:48;6.45;;;3.20;;
56541;SDS011;42438;53.174;6.730;2023-08-08T01:18:20;6.50;;;3.63;;
56541;SDS011;42438;53.174;6.730;2023-08-08T01:20:52;5.18;;;3.20;;
56541;SDS011;42438;53.174;6.730;2023-08-08T01:26:14;6.57;;;3.08;;
56541;SDS011;42438;53.174;6.730;2023-08-08T01:28:44;5.38;;;2.88;;
56541;SDS011;42438;53.174;6.730;2023-08-08T01:31:15;5.47;;;3.28;;
56541;SDS011;42438;53.174;6.730;2023-08-08T01:33:46;6.07;;;3.08;;
56541;SDS011;42438;53.174;6.730;2023-08-08T01:36:20;6.00;;;3.45;;
56541;SDS011;42438;53.174;6.730;2023-08-08T01:38:59;6.18;;;3.30;;
56541;SDS011;42438;53.174;6.730;2023-08-08T01:41:34;6.25;;;3.20;;
56541;SDS011;42438;53.174;6.730;2023-08-08T01:44:08;5.70;;;3.28;;
56541;SDS011;42438;53.174;6.730;2023-08-08T01:46:39;6.35;;;3.53;;
56541;SDS011;42438;53.174;6.730;2023-08-08T01:49:10;7.72;;;3.30;;
56541;SDS011;42438;53.174;6.730;2023-08-08T01:51:41;11.50;;;3.55;;
56541;SDS011;42438;53.174;6.730;2023-08-08T01:54:11;6.72;;;3.20;;
56541;SDS011;42438;53.174;6.730;2023-08-08T01:56:42;7.00;;;3.70;;
56541;SDS011;42438;53.174;6.730;2023-08-08T01:59:13;6.90;;;3.40;;
56541;SDS011;42438;53.174;6.730;2023-08-08T02:01:43;6.53;;;3.10;;
56541;SDS011;42438;53.174;6.730;2023-08-08T02:04:14;9.82;;;3.65;;
56541;SDS011;42438;53.174;6.730;2023-08-08T02:06:44;8.10;;;3.28;;
56541;SDS011;42438;53.174;6.730;2023-08-08T02:09:15;6.05;;;3.60;;
56541;SDS011;42438;53.174;6.730;2023-08-08T02:11:46;7.43;;;3.60;;
56541;SDS011;42438;53.174;6.730;2023-08-08T02:14:16;6.22;;;3.38;;
56541;SDS011;42438;53.174;6.730;2023-08-08T02:16:47;4.93;;;3.38;;
56541;SDS011;42438;53.174;6.730;2023-08-08T02:19:18;8.18;;;3.65;;
56541;SDS011;42438;53.174;6.730;2023-08-08T02:21:48;11.60;;;4.15;;
56541;SDS011;42438;53.174;6.730;2023-08-08T02:24:19;4.32;;;3.10;;
56541;SDS011;42438;53.174;6.730;2023-08-08T02:26:50;8.07;;;3.97;;
56541;SDS011;42438;53.174;6.730;2023-08-08T02:29:20;6.07;;;3.50;;
56541;SDS011;42438;53.174;6.730;2023-08-08T02:31:51;6.00;;;3.70;;
56541;SDS011;42438;53.174;6.730;2023-08-08T02:34:22;10.27;;;3.72;;
56541;SDS011;42438;53.174;6.730;2023-08-08T02:36:52;6.68;;;3.47;;
56541;SDS011;42438;53.174;6.730;2023-08-08T02:39:23;6.57;;;3.30;;
56541;SDS011;42438;53.174;6.730;2023-08-08T02:41:54;7.07;;;3.60;;
56541;SDS011;42438;53.174;6.730;2023-08-08T02:44:24;6.57;;;3.40;;
56541;SDS011;42438;53.174;6.730;2023-08-08T02:46:55;6.47;;;3.50;;
56541;SDS011;42438;53.174;6.730;2023-08-08T02:49:26;6.65;;;3.80;;
56541;SDS011;42438;53.174;6.730;2023-08-08T02:51:56;6.13;;;3.58;;
56541;SDS011;42438;53.174;6.730;2023-08-08T02:54:27;7.38;;;3.80;;
56541;SDS011;42438;53.174;6.730;2023-08-08T02:56:58;7.28;;;3.90;;
56541;SDS011;42438;53.174;6.730;2023-08-08T02:59:28;10.15;;;4.13;;
56541;SDS011;42438;53.174;6.730;2023-08-08T03:01:59;7.32;;;3.95;;
56541;SDS011;42438;53.174;6.730;2023-08-08T03:04:30;7.45;;;3.40;;
56541;SDS011;42438;53.174;6.730;2023-08-08T03:07:01;6.80;;;3.70;;
56541;SDS011;42438;53.174;6.730;2023-08-08T03:09:34;7.90;;;3.30;;
56541;SDS011;42438;53.174;6.730;2023-08-08T03:12:04;8.45;;;3.67;;
56541;SDS011;42438;53.174;6.730;2023-08-08T03:14:35;10.32;;;3.30;;
56541;SDS011;42438;53.174;6.730;2023-08-08T03:17:06;9.73;;;3.10;;
56541;SDS011;42438;53.174;6.730;2023-08-08T03:19:37;10.23;;;3.35;;
56541;SDS011;42438;53.174;6.730;2023-08-08T03:22:07;7.03;;;3.63;;
56541;SDS011;42438;53.174;6.730;2023-08-08T03:24:38;5.55;;;2.95;;
56541;SDS011;42438;53.174;6.730;2023-08-08T03:27:09;4.65;;;2.80;;
56541;SDS011;42438;53.174;6.730;2023-08-08T03:29:39;6.28;;;2.50;;
56541;SDS011;42438;53.174;6.730;2023-08-08T03:32:10;9.32;;;2.92;;
56541;SDS011;42438;53.174;6.730;2023-08-08T03:34:41;6.10;;;2.45;;
56541;SDS011;42438;53.174;6.730;2023-08-08T03:37:11;5.50;;;2.30;;
56541;SDS011;42438;53.174;6.730;2023-08-08T03:39:42;7.28;;;2.95;;
56541;SDS011;42438;53.174;6.730;2023-08-08T03:42:13;6.03;;;2.85;;
56541;SDS011;42438;53.174;6.730;2023-08-08T03:44:43;6.82;;;2.70;;
56541;SDS011;42438;53.174;6.730;2023-08-08T03:47:15;7.03;;;3.60;;
56541;SDS011;42438;53.174;6.730;2023-08-08T03:49:46;5.63;;;2.40;;
56541;SDS011;42438;53.174;6.730;2023-08-08T03:52:16;4.80;;;2.35;;
56541;SDS011;42438;53.174;6.730;2023-08-08T03:54:47;6.18;;;2.50;;
56541;SDS011;42438;53.174;6.730;2023-08-08T03:57:18;5.75;;;2.30;;
56541;SDS011;42438;53.174;6.730;2023-08-08T03:59:48;5.82;;;2.53;;
56541;SDS011;42438;53.174;6.730;2023-08-08T04:02:19;5.97;;;2.40;;
56541;SDS011;42438;53.174;6.730;2023-08-08T04:04:50;4.88;;;2.25;;
56541;SDS011;42438;53.174;6.730;2023-08-08T04:07:20;4.30;;;2.17;;
56541;SDS011;42438;53.174;6.730;2023-08-08T04:09:51;4.95;;;2.45;;
56541;SDS011;42438;53.174;6.730;2023-08-08T04:12:22;5.50;;;2.15;;
56541;SDS011;42438;53.174;6.730;2023-08-08T04:14:52;5.40;;;2.17;;
56541;SDS011;42438;53.174;6.730;2023-08-08T04:17:23;3.97;;;1.77;;
56541;SDS011;42438;53.174;6.730;2023-08-08T04:19:54;4.47;;;2.17;;
56541;SDS011;42438;53.174;6.730;2023-08-08T04:22:24;4.10;;;1.98;;
56541;SDS011;42438;53.174;6.730;2023-08-08T04:24:55;7.32;;;2.40;;
56541;SDS011;42438;53.174;6.730;2023-08-08T04:27:26;4.43;;;2.03;;
56541;SDS011;42438;53.174;6.730;2023-08-08T04:29:56;6.80;;;2.17;;
56541;SDS011;42438;53.174;6.730;2023-08-08T04:32:27;5.43;;;1.98;;
56541;SDS011;42438;53.174;6.730;2023-08-08T04:34:58;6.38;;;2.00;;
56541;SDS011;42438;53.174;6.730;2023-08-08T04:37:28;7.00;;;2.15;;
56541;SDS011;42438;53.174;6.730;2023-08-08T04:39:59;6.63;;;2.50;;
56541;SDS011;42438;53.174;6.730;2023-08-08T04:42:30;11.27;;;2.47;;
56541;SDS011;42438;53.174;6.730;2023-08-08T04:45:00;4.35;;;2.05;;
56541;SDS011;42438;53.174;6.730;2023-08-08T04:47:31;4.40;;;2.10;;
56541;SDS011;42438;53.174;6.730;2023-08-08T04:50:02;5.57;;;2.17;;
56541;SDS011;42438;53.174;6.730;2023-08-08T04:52:33;6.88;;;2.45;;
56541;SDS011;42438;53.174;6.730;2023-08-08T04:55:04;8.27;;;2.40;;
56541;SDS011;42438;53.174;6.730;2023-08-08T04:57:35;5.85;;;2.28;;
56541;SDS011;42438;53.174;6.730;2023-08-08T05:00:06;4.70;;;2.25;;
56541;SDS011;42438;53.174;6.730;2023-08-08T05:02:38;5.40;;;2.17;;
56541;SDS011;42438;53.174;6.730;2023-08-08T05:05:11;7.40;;;2.20;;
56541;SDS011;42438;53.174;6.730;2023-08-08T05:07:41;4.22;;;2.15;;
56541;SDS011;42438;53.174;6.730;2023-08-08T05:10:12;6.22;;;2.88;;
56541;SDS011;42438;53.174;6.730;2023-08-08T05:12:43;6.93;;;1.98;;
56541;SDS011;42438;53.174;6.730;2023-08-08T05:15:13;5.00;;;1.92;;
56541;SDS011;42438;53.174;6.730;2023-08-08T05:17:44;5.63;;;2.30;;
56541;SDS011;42438;53.174;6.730;2023-08-08T05:20:15;4.95;;;1.90;;
56541;SDS011;42438;53.174;6.730;2023-08-08T05:22:46;4.90;;;2.00;;
56541;SDS011;42438;53.174;6.730;2023-08-08T05:25:17;5.07;;;1.83;;
56541;SDS011;42438;53.174;6.730;2023-08-08T05:27:47;6.68;;;2.20;;
56541;SDS011;42438;53.174;6.730;2023-08-08T05:30:20;5.70;;;1.85;;
56541;SDS011;42438;53.174;6.730;2023-08-08T05:32:50;7.03;;;2.20;;
56541;SDS011;42438;53.174;6.730;2023-08-08T05:35:21;6.68;;;1.77;;
56541;SDS011;42438;53.174;6.730;2023-08-08T05:37:52;7.63;;;2.28;;
56541;SDS011;42438;53.174;6.730;2023-08-08T05:40:23;4.18;;;1.90;;
56541;SDS011;42438;53.174;6.730;2023-08-08T05:42:53;4.68;;;1.88;;
56541;SDS011;42438;53.174;6.730;2023-08-08T05:45:24;8.07;;;2.20;;
56541;SDS011;42438;53.174;6.730;2023-08-08T05:47:55;7.15;;;1.98;;
56541;SDS011;42438;53.174;6.730;2023-08-08T05:50:26;5.45;;;1.85;;
56541;SDS011;42438;53.174;6.730;2023-08-08T05:52:58;6.72;;;1.77;;
56541;SDS011;42438;53.174;6.730;2023-08-08T05:55:28;4.05;;;1.48;;
56541;SDS011;42438;53.174;6.730;2023-08-08T05:57:59;4.72;;;1.80;;
56541;SDS011;42438;53.174;6.730;2023-08-08T06:00:30;5.95;;;1.75;;
56541;SDS011;42438;53.174;6.730;2023-08-08T06:03:01;5.05;;;1.80;;
56541;SDS011;42438;53.174;6.730;2023-08-08T06:05:32;6.30;;;1.80;;
56541;SDS011;42438;53.174;6.730;2023-08-08T06:08:03;6.68;;;1.70;;
56541;SDS011;42438;53.174;6.730;2023-08-08T06:10:36;4.78;;;1.40;;
56541;SDS011;42438;53.174;6.730;2023-08-08T06:13:07;5.38;;;1.65;;
56541;SDS011;42438;53.174;6.730;2023-08-08T06:15:38;4.90;;;1.58;;
56541;SDS011;42438;53.174;6.730;2023-08-08T06:18:09;6.75;;;1.67;;
56541;SDS011;42438;53.174;6.730;2023-08-08T06:20:39;6.28;;;1.50;;
56541;SDS011;42438;53.174;6.730;2023-08-08T06:23:10;4.20;;;1.20;;
56541;SDS011;42438;53.174;6.730;2023-08-08T06:25:41;6.85;;;1.48;;
56541;SDS011;42438;53.174;6.730;2023-08-08T06:28:12;5.90;;;1.30;;
56541;SDS011;42438;53.174;6.730;2023-08-08T06:30:42;7.35;;;1.80;;
56541;SDS011;42438;53.174;6.730;2023-08-08T06:33:13;4.28;;;2.03;;
56541;SDS011;42438;53.174;6.730;2023-08-08T06:35:44;5.15;;;1.40;;
56541;SDS011;42438;53.174;6.730;2023-08-08T06:38:14;5.47;;;1.75;;
56541;SDS011;42438;53.174;6.730;2023-08-08T06:40:45;3.70;;;1.38;;
56541;SDS011;42438;53.174;6.730;2023-08-08T06:43:16;5.22;;;1.73;;
56541;SDS011;42438;53.174;6.730;2023-08-08T06:45:47;3.42;;;1.40;;
56541;SDS011;42438;53.174;6.730;2023-08-08T06:48:17;6.28;;;1.60;;
56541;SDS011;42438;53.174;6.730;2023-08-08T06:50:48;7.25;;;1.83;;
56541;SDS011;42438;53.174;6.730;2023-08-08T06:53:19;4.38;;;1.73;;
56541;SDS011;42438;53.174;6.730;2023-08-08T06:55:49;5.15;;;1.45;;
56541;SDS011;42438;53.174;6.730;2023-08-08T06:58:21;3.47;;;1.50;;
56541;SDS011;42438;53.174;6.730;2023-08-08T07:00:51;6.22;;;1.73;;
56541;SDS011;42438;53.174;6.730;2023-08-08T07:03:22;6.40;;;1.45;;
56541;SDS011;42438;53.174;6.730;2023-08-08T07:05:53;5.13;;;1.80;;
56541;SDS011;42438;53.174;6.730;2023-08-08T07:08:24;5.95;;;1.60;;
56541;SDS011;42438;53.174;6.730;2023-08-08T07:10:56;4.68;;;1.45;;
56541;SDS011;42438;53.174;6.730;2023-08-08T07:15:58;3.70;;;1.08;;
56541;SDS011;42438;53.174;6.730;2023-08-08T07:18:29;5.95;;;1.60;;
56541;SDS011;42438;53.174;6.730;2023-08-08T07:20:59;6.00;;;1.30;;
56541;SDS011;42438;53.174;6.730;2023-08-08T07:23:30;3.92;;;1.38;;
56541;SDS011;42438;53.174;6.730;2023-08-08T07:26:01;8.90;;;1.52;;
56541;SDS011;42438;53.174;6.730;2023-08-08T07:28:32;5.10;;;1.20;;
56541;SDS011;42438;53.174;6.730;2023-08-08T07:31:02;4.85;;;1.50;;
56541;SDS011;42438;53.174;6.730;2023-08-08T07:33:33;5.97;;;2.28;;
56541;SDS011;42438;53.174;6.730;2023-08-08T07:36:04;7.05;;;1.50;;
56541;SDS011;42438;53.174;6.730;2023-08-08T07:38:34;4.05;;;1.20;;
56541;SDS011;42438;53.174;6.730;2023-08-08T07:41:05;5.22;;;1.27;;
56541;SDS011;42438;53.174;6.730;2023-08-08T07:43:36;2.63;;;1.50;;
56541;SDS011;42438;53.174;6.730;2023-08-08T07:46:06;3.55;;;1.90;;
56541;SDS011;42438;53.174;6.730;2023-08-08T07:48:37;5.97;;;1.40;;
56541;SDS011;42438;53.174;6.730;2023-08-08T07:51:08;4.03;;;1.05;;
56541;SDS011;42438;53.174;6.730;2023-08-08T07:53:38;4.93;;;1.83;;
56541;SDS011;42438;53.174;6.730;2023-08-08T07:56:09;9.40;;;1.75;;
56541;SDS011;42438;53.174;6.730;2023-08-08T07:58:40;5.07;;;1.38;;
56541;SDS011;42438;53.174;6.730;2023-08-08T08:01:10;5.45;;;1.40;;
56541;SDS011;42438;53.174;6.730;2023-08-08T08:03:41;4.82;;;1.30;;
56541;SDS011;42438;53.174;6.730;2023-08-08T08:06:12;4.25;;;1.45;;
56541;SDS011;42438;53.174;6.730;2023-08-08T08:08:43;2.97;;;1.20;;
56541;SDS011;42438;53.174;6.730;2023-08-08T08:11:13;4.38;;;1.25;;
56541;SDS011;42438;53.174;6.730;2023-08-08T08:13:46;3.58;;;1.50;;
56541;SDS011;42438;53.174;6.730;2023-08-08T08:16:16;7.35;;;1.60;;
56541;SDS011;42438;53.174;6.730;2023-08-08T08:18:47;4.82;;;1.42;;
56541;SDS011;42438;53.174;6.730;2023-08-08T08:21:18;3.05;;;1.20;;
56541;SDS011;42438;53.174;6.730;2023-08-08T08:23:48;5.53;;;1.15;;
56541;SDS011;42438;53.174;6.730;2023-08-08T08:26:19;7.55;;;1.40;;
56541;SDS011;42438;53.174;6.730;2023-08-08T08:28:50;6.38;;;1.20;;
56541;SDS011;42438;53.174;6.730;2023-08-08T08:31:20;2.42;;;1.00;;
56541;SDS011;42438;53.174;6.730;2023-08-08T08:33:52;3.25;;;1.23;;
56541;SDS011;42438;53.174;6.730;2023-08-08T08:36:25;4.53;;;1.38;;
56541;SDS011;42438;53.174;6.730;2023-08-08T08:38:56;4.97;;;1.10;;
56541;SDS011;42438;53.174;6.730;2023-08-08T08:41:27;4.53;;;1.17;;
56541;SDS011;42438;53.174;6.730;2023-08-08T08:43:58;4.32;;;1.40;;
56541;SDS011;42438;53.174;6.730;2023-08-08T08:46:29;3.50;;;1.23;;
56541;SDS011;42438;53.174;6.730;2023-08-08T08:49:00;2.60;;;1.45;;
56541;SDS011;42438;53.174;6.730;2023-08-08T08:51:35;5.88;;;1.40;;
56541;SDS011;42438;53.174;6.730;2023-08-08T08:54:06;4.15;;;1.33;;
56541;SDS011;42438;53.174;6.730;2023-08-08T08:56:37;3.88;;;1.33;;
56541;SDS011;42438;53.174;6.730;2023-08-08T08:59:08;4.50;;;1.17;;
56541;SDS011;42438;53.174;6.730;2023-08-08T09:01:38;5.30;;;1.52;;
56541;SDS011;42438;53.174;6.730;2023-08-08T09:04:09;3.85;;;1.35;;
56541;SDS011;42438;53.174;6.730;2023-08-08T09:06:41;4.20;;;1.15;;
56541;SDS011;42438;53.174;6.730;2023-08-08T09:09:12;3.88;;;1.23;;
56541;SDS011;42438;53.174;6.730;2023-08-08T09:11:50;4.43;;;1.20;;
56541;SDS011;42438;53.174;6.730;2023-08-08T09:14:25;5.22;;;1.70;;
56541;SDS011;42438;53.174;6.730;2023-08-08T09:16:57;3.87;;;1.27;;
56541;SDS011;42438;53.174;6.730;2023-08-08T09:19:28;4.00;;;1.25;;
56541;SDS011;42438;53.174;6.730;2023-08-08T09:21:58;2.05;;;1.08;;
56541;SDS011;42438;53.174;6.730;2023-08-08T09:24:29;5.80;;;1.45;;
56541;SDS011;42438;53.174;6.730;2023-08-08T09:26:59;6.45;;;1.20;;
56541;SDS011;42438;53.174;6.730;2023-08-08T09:29:30;4.18;;;1.65;;
56541;SDS011;42438;53.174;6.730;2023-08-08T09:32:07;2.78;;;1.27;;
56541;SDS011;42438;53.174;6.730;2023-08-08T09:34:40;2.60;;;1.00;;
56541;SDS011;42438;53.174;6.730;2023-08-08T09:37:12;5.30;;;1.15;;
56541;SDS011;42438;53.174;6.730;2023-08-08T09:39:44;7.28;;;1.35;;
56541;SDS011;42438;53.174;6.730;2023-08-08T09:42:14;4.53;;;1.30;;
56541;SDS011;42438;53.174;6.730;2023-08-08T09:44:45;5.35;;;1.50;;
56541;SDS011;42438;53.174;6.730;2023-08-08T09:47:17;3.80;;;1.27;;
56541;SDS011;42438;53.174;6.730;2023-08-08T09:49:47;3.83;;;1.05;;
56541;SDS011;42438;53.174;6.730;2023-08-08T09:52:19;4.72;;;1.20;;
56541;SDS011;42438;53.174;6.730;2023-08-08T09:54:50;4.10;;;1.10;;
56541;SDS011;42438;53.174;6.730;2023-08-08T09:57:25;2.25;;;1.00;;
56541;SDS011;42438;53.174;6.730;2023-08-08T09:59:56;5.72;;;1.23;;
56541;SDS011;42438;53.174;6.730;2023-08-08T10:02:27;3.05;;;1.00;;
56541;SDS011;42438;53.174;6.730;2023-08-08T10:05:00;3.30;;;1.27;;
56541;SDS011;42438;53.174;6.730;2023-08-08T10:07:34;4.07;;;1.50;;
56541;SDS011;42438;53.174;6.730;2023-08-08T10:10:06;4.32;;;1.40;;
56541;SDS011;42438;53.174;6.730;2023-08-08T10:15:09;2.85;;;1.25;;
56541;SDS011;42438;53.174;6.730;2023-08-08T10:17:41;3.03;;;1.30;;
56541;SDS011;42438;53.174;6.730;2023-08-08T10:20:12;2.55;;;1.05;;
56541;SDS011;42438;53.174;6.730;2023-08-08T10:22:47;4.00;;;1.42;;
56541;SDS011;42438;53.174;6.730;2023-08-08T10:25:27;2.22;;;1.08;;
56541;SDS011;42438;53.174;6.730;2023-08-08T10:28:05;3.70;;;1.27;;
56541;SDS011;42438;53.174;6.730;2023-08-08T10:31:15;3.28;;;1.25;;
56541;SDS011;42438;53.174;6.730;2023-08-08T10:33:41;5.60;;;1.52;;
56541;SDS011;42438;53.174;6.730;2023-08-08T10:36:13;4.75;;;1.20;;
56541;SDS011;42438;53.174;6.730;2023-08-08T10:38:44;3.45;;;1.67;;
56541;SDS011;42438;53.174;6.730;2023-08-08T10:41:17;3.65;;;1.02;;
56541;SDS011;42438;53.174;6.730;2023-08-08T10:43:53;3.88;;;1.30;;
56541;SDS011;42438;53.174;6.730;2023-08-08T10:46:30;3.00;;;1.20;;
56541;SDS011;42438;53.174;6.730;2023-08-08T10:49:04;4.43;;;1.38;;
56541;SDS011;42438;53.174;6.730;2023-08-08T10:54:28;4.50;;;1.50;;
56541;SDS011;42438;53.174;6.730;2023-08-08T10:57:00;5.50;;;1.77;;
56541;SDS011;42438;53.174;6.730;2023-08-08T10:59:37;7.00;;;1.42;;
56541;SDS011;42438;53.174;6.730;2023-08-08T11:02:08;5.93;;;1.50;;
56541;SDS011;42438;53.174;6.730;2023-08-08T11:04:40;3.88;;;1.10;;
56541;SDS011;42438;53.174;6.730;2023-08-08T11:07:11;4.32;;;1.83;;
56541;SDS011;42438;53.174;6.730;2023-08-08T11:09:44;6.75;;;1.40;;
56541;SDS011;42438;53.174;6.730;2023-08-08T11:12:14;6.38;;;1.50;;
56541;SDS011;42438;53.174;6.730;2023-08-08T11:14:46;4.75;;;2.05;;
56541;SDS011;42438;53.174;6.730;2023-08-08T11:17:16;2.60;;;1.50;;
56541;SDS011;42438;53.174;6.730;2023-08-08T11:19:48;4.22;;;1.73;;
56541;SDS011;42438;53.174;6.730;2023-08-08T11:22:23;3.08;;;1.40;;
56541;SDS011;42438;53.174;6.730;2023-08-08T11:24:54;3.47;;;1.40;;
56541;SDS011;42438;53.174;6.730;2023-08-08T11:27:27;4.70;;;1.15;;
56541;SDS011;42438;53.174;6.730;2023-08-08T11:29:57;5.97;;;1.52;;
56541;SDS011;42438;53.174;6.730;2023-08-08T11:32:28;4.88;;;1.65;;
56541;SDS011;42438;53.174;6.730;2023-08-08T11:34:59;5.55;;;1.60;;
56541;SDS011;42438;53.174;6.730;2023-08-08T11:37:30;3.78;;;1.20;;
56541;SDS011;42438;53.174;6.730;2023-08-08T11:40:01;4.43;;;1.50;;
56541;SDS011;42438;53.174;6.730;2023-08-08T11:42:31;4.78;;;1.27;;
56541;SDS011;42438;53.174;6.730;2023-08-08T11:45:02;4.50;;;1.60;;
56541;SDS011;42438;53.174;6.730;2023-08-08T11:47:34;3.65;;;1.48;;
56541;SDS011;42438;53.174;6.730;2023-08-08T11:50:09;4.82;;;1.15;;
56541;SDS011;42438;53.174;6.730;2023-08-08T11:52:41;4.55;;;1.38;;
56541;SDS011;42438;53.174;6.730;2023-08-08T11:55:13;1.98;;;1.10;;
56541;SDS011;42438;53.174;6.730;2023-08-08T11:57:44;4.78;;;1.30;;
56541;SDS011;42438;53.174;6.730;2023-08-08T12:00:14;3.00;;;1.17;;
56541;SDS011;42438;53.174;6.730;2023-08-08T12:02:45;4.32;;;1.10;;
56541;SDS011;42438;53.174;6.730;2023-08-08T12:05:20;3.00;;;1.35;;
56541;SDS011;42438;53.174;6.730;2023-08-08T12:07:52;4.88;;;1.20;;
56541;SDS011;42438;53.174;6.730;2023-08-08T12:10:23;6.05;;;1.23;;
56541;SDS011;42438;53.174;6.730;2023-08-08T12:12:55;3.22;;;1.27;;
56541;SDS011;42438;53.174;6.730;2023-08-08T12:15:29;4.53;;;1.27;;
56541;SDS011;42438;53.174;6.730;2023-08-08T12:18:04;2.42;;;1.10;;
56541;SDS011;42438;53.174;6.730;2023-08-08T12:20:35;3.53;;;1.30;;
56541;SDS011;42438;53.174;6.730;2023-08-08T12:23:06;2.30;;;1.10;;
56541;SDS011;42438;53.174;6.730;2023-08-08T12:25:37;2.65;;;1.23;;
56541;SDS011;42438;53.174;6.730;2023-08-08T12:28:08;3.22;;;1.05;;
56541;SDS011;42438;53.174;6.730;2023-08-08T12:30:38;3.70;;;1.40;;
56541;SDS011;42438;53.174;6.730;2023-08-08T12:33:09;4.63;;;1.30;;
56541;SDS011;42438;53.174;6.730;2023-08-08T12:35:40;4.93;;;1.58;;
56541;SDS011;42438;53.174;6.730;2023-08-08T12:38:10;4.22;;;1.60;;
56541;SDS011;42438;53.174;6.730;2023-08-08T12:40:41;4.88;;;1.30;;
56541;SDS011;42438;53.174;6.730;2023-08-08T12:43:12;4.38;;;1.20;;
56541;SDS011;42438;53.174;6.730;2023-08-08T12:45:47;3.40;;;1.15;;
56541;SDS011;42438;53.174;6.730;2023-08-08T12:48:18;8.55;;;1.73;;
56541;SDS011;42438;53.174;6.730;2023-08-08T12:50:48;6.60;;;1.80;;
56541;SDS011;42438;53.174;6.730;2023-08-08T12:53:19;3.75;;;1.10;;
56541;SDS011;42438;53.174;6.730;2023-08-08T12:55:49;2.35;;;0.90;;
56541;SDS011;42438;53.174;6.730;2023-08-08T12:58:20;4.25;;;1.48;;
56541;SDS011;42438;53.174;6.730;2023-08-08T13:00:51;4.03;;;1.25;;
56541;SDS011;42438;53.174;6.730;2023-08-08T13:03:23;4.07;;;1.43;;
56541;SDS011;42438;53.174;6.730;2023-08-08T13:05:54;2.92;;;1.10;;
56541;SDS011;42438;53.174;6.730;2023-08-08T13:08:24;4.80;;;1.60;;
56541;SDS011;42438;53.174;6.730;2023-08-08T13:10:55;2.28;;;1.50;;
56541;SDS011;42438;53.174;6.730;2023-08-08T13:13:26;1.75;;;0.90;;
56541;SDS011;42438;53.174;6.730;2023-08-08T13:15:56;4.15;;;1.25;;
56541;SDS011;42438;53.174;6.730;2023-08-08T13:18:27;4.38;;;1.30;;
56541;SDS011;42438;53.174;6.730;2023-08-08T13:20:58;4.72;;;1.33;;
56541;SDS011;42438;53.174;6.730;2023-08-08T13:23:28;2.58;;;1.00;;
56541;SDS011;42438;53.174;6.730;2023-08-08T13:25:59;3.63;;;1.60;;
56541;SDS011;42438;53.174;6.730;2023-08-08T13:28:30;2.65;;;1.02;;
56541;SDS011;42438;53.174;6.730;2023-08-08T13:31:01;4.03;;;1.45;;
56541;SDS011;42438;53.174;6.730;2023-08-08T13:33:32;3.55;;;1.13;;
56541;SDS011;42438;53.174;6.730;2023-08-08T13:36:04;4.93;;;1.33;;
56541;SDS011;42438;53.174;6.730;2023-08-08T13:38:35;4.80;;;1.45;;
56541;SDS011;42438;53.174;6.730;2023-08-08T13:41:05;7.07;;;1.75;;
56541;SDS011;42438;53.174;6.730;2023-08-08T13:43:36;3.83;;;1.10;;
56541;SDS011;42438;53.174;6.730;2023-08-08T13:46:07;4.82;;;1.40;;
56541;SDS011;42438;53.174;6.730;2023-08-08T13:48:39;4.00;;;1.27;;
56541;SDS011;42438;53.174;6.730;2023-08-08T13:51:10;4.45;;;1.15;;
56541;SDS011;42438;53.174;6.730;2023-08-08T13:53:41;3.75;;;1.23;;
56541;SDS011;42438;53.174;6.730;2023-08-08T13:56:11;4.20;;;1.30;;
56541;SDS011;42438;53.174;6.730;2023-08-08T13:58:42;6.30;;;1.33;;
56541;SDS011;42438;53.174;6.730;2023-08-08T14:01:13;7.32;;;1.30;;
56541;SDS011;42438;53.174;6.730;2023-08-08T14:03:43;6.95;;;1.30;;
56541;SDS011;42438;53.174;6.730;2023-08-08T14:06:14;3.47;;;1.10;;
56541;SDS011;42438;53.174;6.730;2023-08-08T14:08:45;5.78;;;1.00;;
56541;SDS011;42438;53.174;6.730;2023-08-08T14:11:15;3.08;;;1.17;;
56541;SDS011;42438;53.174;6.730;2023-08-08T14:13:46;7.40;;;1.42;;
56541;SDS011;42438;53.174;6.730;2023-08-08T14:16:17;5.28;;;1.20;;
56541;SDS011;42438;53.174;6.730;2023-08-08T14:18:47;4.13;;;1.08;;
56541;SDS011;42438;53.174;6.730;2023-08-08T14:21:18;4.10;;;1.10;;
56541;SDS011;42438;53.174;6.730;2023-08-08T14:23:49;2.88;;;1.20;;
56541;SDS011;42438;53.174;6.730;2023-08-08T14:26:20;6.43;;;1.45;;
56541;SDS011;42438;53.174;6.730;2023-08-08T14:28:50;5.22;;;1.10;;
56541;SDS011;42438;53.174;6.730;2023-08-08T14:31:21;8.75;;;1.50;;
56541;SDS011;42438;53.174;6.730;2023-08-08T14:33:52;3.53;;;0.90;;
56541;SDS011;42438;53.174;6.730;2023-08-08T14:36:23;3.78;;;1.10;;
56541;SDS011;42438;53.174;6.730;2023-08-08T14:38:53;5.07;;;1.05;;
56541;SDS011;42438;53.174;6.730;2023-08-08T14:41:24;2.22;;;1.08;;
56541;SDS011;42438;53.174;6.730;2023-08-08T14:43:55;2.40;;;1.00;;
56541;SDS011;42438;53.174;6.730;2023-08-08T14:46:25;4.28;;;1.73;;
56541;SDS011;42438;53.174;6.730;2023-08-08T14:48:56;3.05;;;1.30;;
56541;SDS011;42438;53.174;6.730;2023-08-08T14:51:27;3.80;;;1.23;;
56541;SDS011;42438;53.174;6.730;2023-08-08T14:53:58;6.53;;;1.23;;
56541;SDS011;42438;53.174;6.730;2023-08-08T14:56:28;3.58;;;1.05;;
56541;SDS011;42438;53.174;6.730;2023-08-08T14:58:59;4.93;;;1.65;;
56541;SDS011;42438;53.174;6.730;2023-08-08T15:01:30;4.32;;;1.00;;
56541;SDS011;42438;53.174;6.730;2023-08-08T15:04:00;5.07;;;1.48;;
56541;SDS011;42438;53.174;6.730;2023-08-08T15:06:32;3.13;;;1.30;;
56541;SDS011;42438;53.174;6.730;2023-08-08T15:09:03;2.97;;;1.23;;
56541;SDS011;42438;53.174;6.730;2023-08-08T15:11:33;3.78;;;0.93;;
56541;SDS011;42438;53.174;6.730;2023-08-08T15:14:04;2.70;;;1.00;;
56541;SDS011;42438;53.174;6.730;2023-08-08T15:16:35;7.22;;;1.30;;
56541;SDS011;42438;53.174;6.730;2023-08-08T15:19:05;4.60;;;1.35;;
56541;SDS011;42438;53.174;6.730;2023-08-08T15:21:36;8.45;;;1.45;;
56541;SDS011;42438;53.174;6.730;2023-08-08T15:24:07;3.47;;;0.98;;